createdAt,value
2023-03-22T00:01:21.295Z,3.98
2023-03-22T00:03:49.269Z,3.99
2023-03-22T00:06:16.749Z,3.99
2023-03-22T00:08:44.378Z,3.96
2023-03-22T00:11:12.913Z,3.91
2023-03-22T00:13:39.807Z,3.87
2023-03-22T00:16:07.084Z,3.86
2023-03-22T00:18:34.294Z,3.80
2023-03-22T00:21:01.855Z,3.75
2023-03-22T00:23:29.467Z,3.75
2023-03-22T00:25:56.570Z,3.74
2023-03-22T00:28:24.608Z,3.78
2023-03-22T00:31:00.497Z,3.75
2023-03-22T00:33:28.558Z,3.74
2023-03-22T00:36:00.371Z,3.76
2023-03-22T00:38:42.382Z,3.74
2023-03-22T00:41:16.217Z,3.73
2023-03-22T00:43:43.597Z,3.72
2023-03-22T00:46:11.383Z,3.71
2023-03-22T00:48:38.731Z,3.72
2023-03-22T00:51:06.222Z,3.71
2023-03-22T00:53:33.447Z,3.72
2023-03-22T00:56:00.591Z,3.76
2023-03-22T00:58:27.339Z,3.75
2023-03-22T01:00:54.210Z,3.77
2023-03-22T01:03:22.056Z,3.76
2023-03-22T01:05:52.182Z,3.71
2023-03-22T01:08:18.952Z,3.62
2023-03-22T01:10:46.090Z,3.58
2023-03-22T01:13:13.086Z,3.56
2023-03-22T01:15:40.015Z,3.54
2023-03-22T01:18:07.662Z,3.50
2023-03-22T01:20:35.277Z,3.48
2023-03-22T01:23:02.120Z,3.47
2023-03-22T01:25:28.963Z,3.45
2023-03-22T01:27:56.058Z,3.46
2023-03-22T01:30:22.868Z,3.43
2023-03-22T01:32:49.690Z,3.45
2023-03-22T01:35:16.544Z,3.50
2023-03-22T01:37:43.342Z,3.51
2023-03-22T01:40:13.413Z,3.52
2023-03-22T01:42:40.353Z,3.48
2023-03-22T01:45:27.549Z,3.48
2023-03-22T01:48:02.479Z,3.46
2023-03-22T01:50:31.252Z,3.43
2023-03-22T01:53:00.589Z,3.44
2023-03-22T01:55:28.188Z,3.47
2023-03-22T01:57:55.564Z,3.45
2023-03-22T02:00:22.691Z,3.42
2023-03-22T02:02:52.394Z,3.44
2023-03-22T02:05:22.269Z,3.45
2023-03-22T02:07:50.615Z,3.43
2023-03-22T02:10:22.187Z,3.49
2023-03-22T02:13:07.230Z,3.55
2023-03-22T02:15:43.551Z,3.54
2023-03-22T02:18:16.497Z,3.52
2023-03-22T02:21:02.439Z,3.51
2023-03-22T02:24:03.790Z,3.58
2023-03-22T02:26:51.749Z,3.61
2023-03-22T02:29:34.060Z,3.58
2023-03-22T02:32:12.565Z,3.56
2023-03-22T02:35:21.378Z,3.59
2023-03-22T02:38:00.318Z,3.59
2023-03-22T02:40:39.489Z,3.61
2023-03-22T02:43:41.678Z,3.65
2023-03-22T02:46:18.949Z,3.63
2023-03-22T02:49:08.471Z,3.62
2023-03-22T02:51:47.460Z,3.61
2023-03-22T02:54:18.991Z,3.57
2023-03-22T02:56:57.795Z,3.49
2023-03-22T02:59:26.886Z,3.38
2023-03-22T03:01:58.259Z,3.35
2023-03-22T03:04:29.416Z,3.32
2023-03-22T03:07:00.469Z,3.25
2023-03-22T03:09:28.171Z,3.24
2023-03-22T03:11:55.336Z,3.18
2023-03-22T03:14:26.729Z,3.13
2023-03-22T03:17:16.789Z,3.14
2023-03-22T03:19:51.738Z,3.11
2023-03-22T03:22:29.595Z,3.11
2023-03-22T03:25:34.167Z,3.11
2023-03-22T03:28:11.418Z,3.11
2023-03-22T03:30:48.747Z,3.08
2023-03-22T03:33:19.754Z,3.10
2023-03-22T03:36:01.510Z,3.10
2023-03-22T03:38:32.007Z,3.09
2023-03-22T03:41:27.443Z,3.15
2023-03-22T03:43:56.242Z,3.10
2023-03-22T03:46:23.023Z,3.11
2023-03-22T03:48:51.811Z,3.11
2023-03-22T03:51:18.847Z,3.12
2023-03-22T03:53:45.576Z,3.11
2023-03-22T03:56:12.434Z,3.11
2023-03-22T03:58:39.170Z,3.14
2023-03-22T04:01:06.188Z,3.15
2023-03-22T04:03:33.033Z,3.18
2023-03-22T04:05:59.904Z,3.20
2023-03-22T04:08:27.395Z,3.22
2023-03-22T04:10:54.187Z,3.24
2023-03-22T04:13:25.187Z,3.28
2023-03-22T04:15:55.445Z,3.32
2023-03-22T04:18:22.226Z,3.33
2023-03-22T04:20:49.564Z,3.33
2023-03-22T04:23:16.595Z,3.34
2023-03-22T04:25:43.705Z,3.38
2023-03-22T04:28:10.507Z,3.35
2023-03-22T04:30:37.537Z,3.31
2023-03-22T04:33:08.513Z,3.30
2023-03-22T04:35:35.452Z,3.32
2023-03-22T04:38:02.225Z,3.29
2023-03-22T04:40:31.802Z,3.29
2023-03-22T04:42:58.975Z,3.30
2023-03-22T04:45:29.278Z,3.28
2023-03-22T04:47:56.422Z,3.30
2023-03-22T04:50:23.350Z,3.29
2023-03-22T04:52:50.375Z,3.30
2023-03-22T04:55:17.167Z,3.27
2023-03-22T04:57:43.919Z,3.32
2023-03-22T05:00:11.341Z,3.23
2023-03-22T05:02:41.490Z,3.23
2023-03-22T05:05:08.548Z,3.24
2023-03-22T05:07:36.572Z,3.29
2023-03-22T05:10:03.535Z,3.32
2023-03-22T05:12:30.317Z,3.34
2023-03-22T05:14:57.102Z,3.37
2023-03-22T05:17:23.835Z,3.39
2023-03-22T05:19:51.939Z,3.44
2023-03-22T05:22:19.296Z,3.51
2023-03-22T05:24:46.172Z,3.56
2023-03-22T05:27:14.224Z,3.61
2023-03-22T05:29:45.010Z,3.63
2023-03-22T05:32:12.141Z,3.61
2023-03-22T05:34:40.119Z,3.52
2023-03-22T05:37:06.842Z,3.39
2023-03-22T05:39:33.876Z,3.34
2023-03-22T05:42:00.650Z,3.30
2023-03-22T05:44:27.560Z,3.32
2023-03-22T05:46:54.319Z,3.30
2023-03-22T05:49:21.212Z,3.36
2023-03-22T05:51:48.136Z,3.33
2023-03-22T05:54:14.864Z,3.31
2023-03-22T05:56:41.564Z,3.30
2023-03-22T05:59:08.359Z,3.24
2023-03-22T06:01:35.326Z,3.21
2023-03-22T06:04:02.288Z,3.14
2023-03-22T06:06:29.151Z,3.03
2023-03-22T06:09:04.294Z,2.99
2023-03-22T06:11:41.185Z,2.93
2023-03-22T06:14:08.049Z,2.87
2023-03-22T06:16:34.868Z,2.83
2023-03-22T06:19:01.691Z,2.81
2023-03-22T06:21:28.473Z,2.83
2023-03-22T06:23:55.260Z,2.88
2023-03-22T06:26:22.014Z,2.94
2023-03-22T06:28:48.879Z,3.02
2023-03-22T06:31:15.861Z,3.09
2023-03-22T06:33:42.653Z,3.20
2023-03-22T06:36:09.734Z,3.27
2023-03-22T06:38:36.460Z,3.30
2023-03-22T06:41:03.365Z,3.35
2023-03-22T06:43:30.474Z,3.48
2023-03-22T06:45:57.416Z,3.67
2023-03-22T06:48:24.263Z,3.82
2023-03-22T06:50:51.090Z,3.91
2023-03-22T06:53:17.801Z,3.90
2023-03-22T06:55:44.584Z,3.80
2023-03-22T06:58:11.699Z,3.68
2023-03-22T07:00:39.313Z,3.81
2023-03-22T07:03:06.247Z,3.82
2023-03-22T07:05:33.077Z,3.97
2023-03-22T07:07:59.857Z,4.16
2023-03-22T07:10:26.614Z,4.28
2023-03-22T07:12:53.383Z,4.18
2023-03-22T07:15:24.306Z,3.98
2023-03-22T07:17:52.227Z,3.88
2023-03-22T07:20:20.033Z,3.92
2023-03-22T07:22:47.089Z,3.81
2023-03-22T07:25:14.025Z,3.87
2023-03-22T07:27:41.170Z,3.81
2023-03-22T07:30:09.819Z,3.78
2023-03-22T07:32:37.065Z,3.91
2023-03-22T07:35:04.141Z,3.98
2023-03-22T07:37:31.283Z,4.11
2023-03-22T07:39:58.049Z,4.10
2023-03-22T07:42:24.874Z,4.14
2023-03-22T07:44:51.961Z,4.21
2023-03-22T07:47:27.192Z,4.34
2023-03-22T07:50:00.873Z,4.59
2023-03-22T07:52:27.959Z,4.58
2023-03-22T07:54:54.737Z,4.59
2023-03-22T07:57:21.502Z,4.53
2023-03-22T07:59:48.249Z,4.60
2023-03-22T08:02:16.096Z,4.60
2023-03-22T08:04:42.865Z,4.59
2023-03-22T08:07:10.158Z,4.56
2023-03-22T08:09:37.631Z,4.57
2023-03-22T08:12:04.630Z,4.62
2023-03-22T08:14:36.677Z,4.75
2023-03-22T08:17:05.728Z,4.84
2023-03-22T08:19:33.308Z,4.78
2023-03-22T08:22:49.927Z,4.88
2023-03-22T08:25:16.767Z,4.79
2023-03-22T08:27:43.509Z,4.85
2023-03-22T08:30:11.123Z,4.88
2023-03-22T08:32:38.032Z,4.93
2023-03-22T08:35:06.438Z,4.93
2023-03-22T08:37:33.207Z,4.88
2023-03-22T08:39:59.982Z,4.83
2023-03-22T08:42:26.864Z,4.75
2023-03-22T08:44:53.581Z,4.76
2023-03-22T08:47:20.588Z,4.90
2023-03-22T08:49:47.414Z,5.00
2023-03-22T08:52:14.236Z,5.15
2023-03-22T08:54:41.501Z,5.26
2023-03-22T08:57:10.344Z,5.27
2023-03-22T08:59:37.262Z,5.29
2023-03-22T09:02:04.458Z,5.29
2023-03-22T09:04:31.504Z,5.24
2023-03-22T09:06:58.295Z,5.12
2023-03-22T09:09:25.414Z,5.09
2023-03-22T09:11:52.547Z,5.01
2023-03-22T09:14:19.333Z,4.90
2023-03-22T09:16:47.204Z,4.92
2023-03-22T09:19:14.172Z,4.92
2023-03-22T09:21:41.240Z,4.96
2023-03-22T09:24:08.682Z,5.01
2023-03-22T09:26:36.991Z,5.15
2023-03-22T09:29:03.814Z,5.35
2023-03-22T09:31:30.879Z,5.65
2023-03-22T09:33:57.643Z,5.69
2023-03-22T09:36:24.509Z,5.74
2023-03-22T09:38:51.417Z,5.71
2023-03-22T09:41:40.221Z,5.73
2023-03-22T09:44:14.247Z,5.69
2023-03-22T09:46:46.081Z,5.75
2023-03-22T09:49:24.459Z,5.81
2023-03-22T09:51:53.149Z,5.71
2023-03-22T09:54:35.310Z,5.86
2023-03-22T09:57:11.025Z,5.95
2023-03-22T09:59:57.098Z,5.91
2023-03-22T10:02:54.897Z,6.11
2023-03-22T10:05:43.691Z,6.06
2023-03-22T10:08:27.756Z,6.21
2023-03-22T10:10:54.806Z,6.08
2023-03-22T10:13:24.200Z,6.01
2023-03-22T10:15:56.941Z,5.90
2023-03-22T10:18:25.934Z,5.89
2023-03-22T10:21:03.858Z,5.96
2023-03-22T10:23:37.024Z,5.88
2023-03-22T10:26:06.647Z,5.67
2023-03-22T10:28:44.391Z,5.64
2023-03-22T10:31:16.113Z,5.61
2023-03-22T10:33:53.624Z,5.74
2023-03-22T10:36:23.855Z,5.93
2023-03-22T10:38:56.440Z,6.10
2023-03-22T10:41:25.745Z,6.18
2023-03-22T10:43:55.647Z,6.12
2023-03-22T10:46:26.216Z,6.18
2023-03-22T10:48:58.730Z,6.19
2023-03-22T10:51:49.087Z,6.11
2023-03-22T10:54:26.375Z,6.15
2023-03-22T10:56:53.408Z,6.22
2023-03-22T10:59:42.444Z,6.40
2023-03-22T11:02:21.580Z,6.28
2023-03-22T11:04:53.867Z,6.19
2023-03-22T11:07:50.224Z,6.33
2023-03-22T11:10:29.723Z,6.24
2023-03-22T11:13:12.315Z,6.30
2023-03-22T11:15:51.771Z,6.12
2023-03-22T11:18:19.591Z,6.06
2023-03-22T11:21:03.887Z,6.17
2023-03-22T11:23:36.083Z,6.02
2023-03-22T11:26:12.088Z,6.05
2023-03-22T11:28:50.849Z,6.01
2023-03-22T11:31:20.535Z,5.78
2023-03-22T11:33:53.438Z,5.65
2023-03-22T11:36:20.584Z,5.54
2023-03-22T11:38:48.778Z,5.49
2023-03-22T11:41:27.316Z,5.47
2023-03-22T11:43:57.061Z,5.50
2023-03-22T11:46:24.997Z,5.52
2023-03-22T11:49:00.348Z,5.58
2023-03-22T11:51:38.821Z,5.60
2023-03-22T11:54:16.805Z,5.60
2023-03-22T11:56:47.353Z,5.52
2023-03-22T11:59:26.236Z,5.46
2023-03-22T12:02:29.351Z,5.51
2023-03-22T12:05:15.544Z,5.38
2023-03-22T12:07:43.434Z,5.35
2023-03-22T12:10:21.071Z,5.50
2023-03-22T12:12:56.263Z,5.50
2023-03-22T12:15:37.240Z,5.59
2023-03-22T12:18:13.820Z,5.70
2023-03-22T12:20:57.451Z,5.90
2023-03-22T12:23:27.478Z,5.89
2023-03-22T12:26:12.327Z,5.90
2023-03-22T12:28:52.605Z,5.88
2023-03-22T12:31:24.335Z,5.91
2023-03-22T12:33:54.816Z,6.03
2023-03-22T12:36:32.131Z,6.01
2023-03-22T12:39:01.327Z,6.07
2023-03-22T12:41:36.485Z,6.14
2023-03-22T12:44:11.284Z,5.89
2023-03-22T12:47:01.153Z,5.84
2023-03-22T12:49:35.846Z,5.68
2023-03-22T12:52:22.447Z,5.80
2023-03-22T12:54:53.122Z,5.88
2023-03-22T12:57:20.526Z,6.05
2023-03-22T12:59:52.209Z,6.36
2023-03-22T13:02:30.146Z,6.63
2023-03-22T13:05:06.695Z,6.91
2023-03-22T13:07:48.675Z,7.37
2023-03-22T13:10:34.158Z,7.83
2023-03-22T13:13:31.820Z,8.35
2023-03-22T13:15:58.697Z,8.36
2023-03-22T13:18:58.122Z,8.37
2023-03-22T13:21:29.913Z,8.10
2023-03-22T13:24:06.410Z,8.06
2023-03-22T13:26:53.508Z,7.66
2023-03-22T13:29:20.524Z,7.23
2023-03-22T13:31:47.259Z,7.01
2023-03-22T13:34:36.124Z,7.05
2023-03-22T13:37:05.326Z,6.77
2023-03-22T13:39:36.071Z,6.54
2023-03-22T13:42:08.599Z,6.39
2023-03-22T13:44:43.985Z,6.33
2023-03-22T13:47:35.977Z,6.47
2023-03-22T13:50:16.123Z,6.48
2023-03-22T13:52:53.016Z,6.59
2023-03-22T13:55:41.271Z,6.71
2023-03-22T13:58:37.436Z,6.79
2023-03-22T14:01:16.724Z,6.87
2023-03-22T14:03:47.499Z,6.74
2023-03-22T14:06:19.042Z,6.66
2023-03-22T14:08:51.909Z,6.62
2023-03-22T14:11:20.256Z,6.54
2023-03-22T14:13:56.248Z,6.63
2023-03-22T14:16:43.541Z,6.72
2023-03-22T14:19:25.111Z,6.82
